createdAt,value
2018-04-09T00:00:07.905Z,11.70
2018-04-09T00:02:35.406Z,11.80
2018-04-09T00:05:02.903Z,11.70
2018-04-09T00:07:32.084Z,11.60
2018-04-09T00:09:59.677Z,11.50
2018-04-09T00:12:27.447Z,11.50
2018-04-09T00:14:57.878Z,11.50
2018-04-09T00:17:26.179Z,11.50
2018-04-09T00:19:53.666Z,11.50
2018-04-09T00:22:21.276Z,11.50
2018-04-09T00:24:48.827Z,11.40
2018-04-09T00:27:16.337Z,11.30
2018-04-09T00:29:43.849Z,11.30
2018-04-09T00:32:11.393Z,11.20
2018-04-09T00:34:38.937Z,11.20
2018-04-09T00:37:06.445Z,11.20
2018-04-09T00:39:33.966Z,11.20
2018-04-09T00:42:01.478Z,11.20
2018-04-09T00:44:28.985Z,11.20
2018-04-09T00:46:56.487Z,11.20
2018-04-09T00:49:24.314Z,11.10
2018-04-09T00:51:52.584Z,11.20
2018-04-09T00:54:20.088Z,11.20
2018-04-09T00:56:47.598Z,11.30
2018-04-09T00:59:15.870Z,11.10
2018-04-09T01:01:44.118Z,11.00
2018-04-09T01:04:11.810Z,11.00
2018-04-09T01:06:40.109Z,11.00
2018-04-09T01:09:08.874Z,11.00
2018-04-09T01:11:37.148Z,11.00
2018-04-09T01:14:06.167Z,10.90
2018-04-09T01:16:33.694Z,10.90
2018-04-09T01:19:01.207Z,10.90
2018-04-09T01:21:29.568Z,10.90
2018-04-09T01:23:57.816Z,10.80
2018-04-09T01:26:25.317Z,10.80
2018-04-09T01:28:52.826Z,10.80
2018-04-09T01:31:20.330Z,10.70
2018-04-09T01:33:47.817Z,10.70
2018-04-09T01:36:16.091Z,10.80
2018-04-09T01:38:44.379Z,10.70
2018-04-09T01:41:12.660Z,10.70
2018-04-09T01:43:40.909Z,10.60
2018-04-09T01:46:08.423Z,10.60
2018-04-09T01:48:35.922Z,10.60
2018-04-09T01:51:03.479Z,10.60
2018-04-09T01:53:30.984Z,10.50
2018-04-09T01:55:58.493Z,10.50
2018-04-09T01:58:25.995Z,10.50
2018-04-09T02:00:55.012Z,10.40
2018-04-09T02:03:24.515Z,10.50
2018-04-09T02:05:52.014Z,10.40
2018-04-09T02:08:19.668Z,10.40
2018-04-09T02:10:47.174Z,10.40
2018-04-09T02:13:14.679Z,10.40
2018-04-09T02:15:42.965Z,10.40
2018-04-09T02:18:11.312Z,10.30
2018-04-09T02:20:40.395Z,10.30
2018-04-09T02:23:08.201Z,10.30
2018-04-09T02:25:36.470Z,10.30
2018-04-09T02:28:03.960Z,10.30
2018-04-09T02:30:32.232Z,10.30
2018-04-09T02:32:59.739Z,10.20
2018-04-09T02:35:27.258Z,10.20
2018-04-09T02:37:55.572Z,10.20
2018-04-09T02:40:24.622Z,10.10
2018-04-09T02:42:52.113Z,10.20
2018-04-09T02:45:20.402Z,10.10
2018-04-09T02:47:47.906Z,10.10
2018-04-09T02:50:15.412Z,10.10
2018-04-09T02:52:43.699Z,10.00
2018-04-09T02:55:11.990Z,10.00
2018-04-09T02:57:39.511Z,10.00
2018-04-09T03:00:07.023Z,10.00
2018-04-09T03:02:34.513Z,10.00
2018-04-09T03:05:02.052Z,10.00
2018-04-09T03:07:29.558Z,10.00
2018-04-09T03:09:57.098Z,9.90
2018-04-09T03:12:24.604Z,10.00
2018-04-09T03:14:52.203Z,10.00
2018-04-09T03:17:19.778Z,10.00
2018-04-09T03:19:47.271Z,10.00
2018-04-09T03:22:14.790Z,10.00
2018-04-09T03:24:42.284Z,10.10
2018-04-09T03:27:10.198Z,10.10
2018-04-09T03:29:38.484Z,9.90
2018-04-09T03:32:06.808Z,9.90
2018-04-09T03:34:34.333Z,9.90
2018-04-09T03:37:02.274Z,9.90
2018-04-09T03:39:29.773Z,9.80
2018-04-09T03:41:57.358Z,9.80
2018-04-09T03:44:24.842Z,9.70
2018-04-09T03:46:52.384Z,9.70
2018-04-09T03:49:19.895Z,9.70
2018-04-09T03:51:47.414Z,9.70
2018-04-09T03:54:14.896Z,9.60
2018-04-09T03:56:42.442Z,9.60
2018-04-09T03:59:09.950Z,9.60
2018-04-09T04:01:37.492Z,9.60
2018-04-09T04:04:04.972Z,9.60
2018-04-09T04:06:32.496Z,9.60
2018-04-09T04:09:00.008Z,9.60
2018-04-09T04:11:27.505Z,9.50
2018-04-09T04:13:55.743Z,9.60
2018-04-09T04:16:35.082Z,9.50
2018-04-09T04:19:14.502Z,9.60
2018-04-09T04:21:46.878Z,9.50
2018-04-09T04:24:14.376Z,9.50
2018-04-09T04:26:42.100Z,9.50
2018-04-09T04:29:09.594Z,9.50
2018-04-09T04:31:37.152Z,9.50
2018-04-09T04:34:04.663Z,9.50
2018-04-09T04:36:32.162Z,9.50
2018-04-09T04:38:59.670Z,9.50
2018-04-09T04:41:27.922Z,9.60
2018-04-09T04:43:55.415Z,9.50
2018-04-09T04:46:23.674Z,9.60
2018-04-09T04:48:51.158Z,9.60
2018-04-09T04:51:19.409Z,9.70
2018-04-09T04:53:46.995Z,9.60
2018-04-09T04:56:15.258Z,9.70
2018-04-09T04:58:43.556Z,9.80
2018-04-09T05:01:11.824Z,9.90
2018-04-09T05:03:40.101Z,9.90
2018-04-09T05:06:07.584Z,9.90
2018-04-09T05:08:35.876Z,10.10
2018-04-09T05:11:04.156Z,10.20
2018-04-09T05:13:32.445Z,10.30
2018-04-09T05:15:59.943Z,10.20
2018-04-09T05:18:27.463Z,10.30
2018-04-09T05:20:54.982Z,10.40
2018-04-09T05:23:22.477Z,10.40
2018-04-09T05:25:50.730Z,10.60
2018-04-09T05:28:18.252Z,10.60
2018-04-09T05:30:45.799Z,10.70
2018-04-09T05:33:13.320Z,10.90
2018-04-09T05:35:40.816Z,11.00
2018-04-09T05:38:09.113Z,11.00
2018-04-09T05:40:36.718Z,11.00
2018-04-09T05:43:04.223Z,11.10
2018-04-09T05:45:32.486Z,11.10
2018-04-09T05:48:00.137Z,11.20
2018-04-09T05:50:27.688Z,11.20
2018-04-09T05:52:55.227Z,11.40
2018-04-09T05:55:23.077Z,11.70
2018-04-09T05:57:51.360Z,12.40
2018-04-09T06:00:19.810Z,12.80
2018-04-09T06:02:47.356Z,12.80
2018-04-09T06:05:14.860Z,13.10
2018-04-09T06:07:43.137Z,13.60
2018-04-09T06:10:11.414Z,13.80
2018-04-09T06:12:39.792Z,13.90
2018-04-09T06:15:07.315Z,13.90
2018-04-09T06:17:34.979Z,14.10
2018-04-09T06:20:02.491Z,14.30
2018-04-09T06:22:30.137Z,14.50
2018-04-09T06:24:57.656Z,14.70
2018-04-09T06:27:25.184Z,14.80
2018-04-09T06:29:52.994Z,14.90
2018-04-09T06:32:20.666Z,15.10
2018-04-09T06:34:48.171Z,15.20
2018-04-09T06:37:15.747Z,15.40
2018-04-09T06:39:43.357Z,15.50
2018-04-09T06:42:10.878Z,15.70
2018-04-09T06:44:38.615Z,15.80
2018-04-09T06:47:06.164Z,15.90
2018-04-09T06:49:33.692Z,16.10
2018-04-09T06:52:01.974Z,16.30
2018-04-09T06:54:29.546Z,16.40
2018-04-09T06:56:57.244Z,16.50
2018-04-09T06:59:25.139Z,16.70
2018-04-09T07:01:52.634Z,16.80
2018-04-09T07:04:20.912Z,17.00
2018-04-09T07:06:49.159Z,17.10
2018-04-09T07:09:16.647Z,17.10
2018-04-09T07:11:44.900Z,17.40
2018-04-09T07:14:12.423Z,17.40
2018-04-09T07:16:39.917Z,17.50
2018-04-09T07:19:07.423Z,17.60
2018-04-09T07:21:35.702Z,17.60
2018-04-09T07:24:03.993Z,17.70
2018-04-09T07:26:32.251Z,17.70
2018-04-09T07:28:59.757Z,17.70
2018-04-09T07:31:27.302Z,17.80
2018-04-09T07:33:56.420Z,18.00
2018-04-09T07:36:23.993Z,17.90
2018-04-09T07:38:51.718Z,18.00
2018-04-09T07:41:19.998Z,18.00
2018-04-09T07:43:48.248Z,18.10
2018-04-09T07:46:15.998Z,18.10
2018-04-09T07:48:43.638Z,18.20
2018-04-09T07:51:12.104Z,18.20
2018-04-09T07:53:40.357Z,18.20
2018-04-09T07:56:07.856Z,18.20
2018-04-09T07:58:36.222Z,18.00
2018-04-09T08:01:03.728Z,18.00
2018-04-09T08:03:31.247Z,17.90
2018-04-09T08:05:58.780Z,17.90
2018-04-09T08:08:26.429Z,17.80
2018-04-09T08:10:53.925Z,17.90
2018-04-09T08:13:21.451Z,17.80
2018-04-09T08:15:49.019Z,17.80
2018-04-09T08:18:16.521Z,17.90
2018-04-09T08:20:44.643Z,18.00
2018-04-09T08:23:12.137Z,18.10
2018-04-09T08:25:39.658Z,18.10
2018-04-09T08:28:08.710Z,18.30
2018-04-09T08:30:36.842Z,18.30
2018-04-09T08:33:04.337Z,18.30
2018-04-09T08:35:31.995Z,18.40
2018-04-09T08:37:59.483Z,18.50
2018-04-09T08:40:26.978Z,18.60
2018-04-09T08:42:56.215Z,18.70
2018-04-09T08:45:23.730Z,18.70
2018-04-09T08:47:51.983Z,18.80
2018-04-09T08:50:19.560Z,18.80
2018-04-09T08:52:47.055Z,18.90
2018-04-09T08:55:15.324Z,19.00
2018-04-09T08:57:42.807Z,19.00
2018-04-09T09:00:10.318Z,19.10
2018-04-09T09:02:37.819Z,19.10
2018-04-09T09:05:06.143Z,19.10
2018-04-09T09:07:33.663Z,19.10
2018-04-09T09:10:01.930Z,19.20
2018-04-09T09:12:29.416Z,19.20
2018-04-09T09:14:57.890Z,19.40
2018-04-09T09:17:26.409Z,19.50
2018-04-09T09:19:53.924Z,19.50
2018-04-09T09:22:21.430Z,19.50
2018-04-09T09:24:48.967Z,19.50
2018-04-09T09:27:17.216Z,19.20
2018-04-09T09:29:44.728Z,19.10
2018-04-09T09:32:13.000Z,19.10
2018-04-09T09:34:41.847Z,19.20
2018-04-09T09:37:09.341Z,19.10
2018-04-09T09:39:36.856Z,19.20
2018-04-09T09:42:04.400Z,19.20
2018-04-09T09:44:31.888Z,19.20
2018-04-09T09:46:59.395Z,19.30
2018-04-09T09:49:26.938Z,19.40
2018-04-09T09:51:54.477Z,19.50
2018-04-09T09:54:22.156Z,19.60
2018-04-09T09:56:49.642Z,19.70
2018-04-09T09:59:17.119Z,19.80
2018-04-09T10:01:44.608Z,20.00
2018-04-09T10:04:12.331Z,20.10
2018-04-09T10:06:40.638Z,20.10
2018-04-09T10:09:08.917Z,20.00
2018-04-09T10:11:37.225Z,20.00
2018-04-09T10:14:04.853Z,20.00
2018-04-09T10:16:32.401Z,20.10
2018-04-09T10:18:59.886Z,20.10
2018-04-09T10:21:28.148Z,20.20
2018-04-09T10:23:55.631Z,20.20
2018-04-09T10:26:23.880Z,20.30
2018-04-09T10:28:51.356Z,20.30
2018-04-09T10:31:18.876Z,20.40
2018-04-09T10:33:46.520Z,20.50
2018-04-09T10:36:14.008Z,20.40
2018-04-09T10:38:41.619Z,20.30
2018-04-09T10:41:09.890Z,20.40
2018-04-09T10:43:37.414Z,20.40
2018-04-09T10:46:04.945Z,20.40
2018-04-09T10:48:33.214Z,20.60
2018-04-09T10:51:01.487Z,20.60
2018-04-09T10:53:28.972Z,20.60
2018-04-09T10:55:57.232Z,20.70
2018-04-09T10:58:24.742Z,20.70
2018-04-09T11:00:52.383Z,20.90
2018-04-09T11:03:20.681Z,20.90
2018-04-09T11:05:48.193Z,20.80
2018-04-09T11:08:15.687Z,20.80
2018-04-09T11:10:43.961Z,20.60
2018-04-09T11:13:12.259Z,20.60
2018-04-09T11:15:40.550Z,20.60
2018-04-09T11:18:08.066Z,20.60
2018-04-09T11:20:35.740Z,20.60
2018-04-09T11:23:03.241Z,20.70
2018-04-09T11:25:30.807Z,20.80
2018-04-09T11:27:58.305Z,21.00
2018-04-09T11:30:25.830Z,21.00
2018-04-09T11:32:53.319Z,21.00
2018-04-09T11:35:20.823Z,21.00
2018-04-09T11:37:48.611Z,21.20
2018-04-09T11:40:16.875Z,21.40
2018-04-09T11:42:44.358Z,21.40
2018-04-09T11:45:12.844Z,21.50
2018-04-09T11:47:41.118Z,21.40
2018-04-09T11:50:09.398Z,21.30
2018-04-09T11:52:37.668Z,21.20
2018-04-09T11:55:05.194Z,21.30
2018-04-09T11:57:32.675Z,21.30
2018-04-09T12:00:00.246Z,21.40
2018-04-09T12:02:28.357Z,21.50
2018-04-09T12:04:56.635Z,21.30
2018-04-09T12:07:24.878Z,21.40
2018-04-09T12:09:52.420Z,21.40
2018-04-09T12:12:20.757Z,21.50
2018-04-09T12:14:49.042Z,21.50
2018-04-09T12:17:17.299Z,21.50
2018-04-09T12:19:45.629Z,21.50
2018-04-09T12:22:13.111Z,21.50
2018-04-09T12:24:40.617Z,21.50
2018-04-09T12:27:08.108Z,21.50
2018-04-09T12:29:35.602Z,21.60
2018-04-09T12:32:03.099Z,21.70
2018-04-09T12:34:30.592Z,21.90
2018-04-09T12:36:58.964Z,22.00
2018-04-09T12:39:27.216Z,21.90
2018-04-09T12:41:55.027Z,21.90
2018-04-09T12:44:22.519Z,21.90
2018-04-09T12:46:50.073Z,21.80
2018-04-09T12:49:17.580Z,21.80
2018-04-09T12:51:45.092Z,21.80
2018-04-09T12:54:12.589Z,21.80
2018-04-09T12:56:40.096Z,21.80
2018-04-09T12:59:08.350Z,21.80
2018-04-09T13:01:35.851Z,21.80
2018-04-09T13:04:03.334Z,21.80
2018-04-09T13:06:30.877Z,21.70
2018-04-09T13:08:58.385Z,21.80
2018-04-09T13:11:26.037Z,21.80
2018-04-09T13:13:53.555Z,21.90
2018-04-09T13:16:21.151Z,21.90
2018-04-09T13:18:49.072Z,21.80
2018-04-09T13:21:16.602Z,21.80
2018-04-09T13:23:44.117Z,21.90
2018-04-09T13:26:11.683Z,21.90
2018-04-09T13:28:39.929Z,22.00
2018-04-09T13:31:07.448Z,22.00
2018-04-09T13:33:34.955Z,22.10
2018-04-09T13:36:02.445Z,22.10
2018-04-09T13:38:30.710Z,21.90
2018-04-09T13:40:59.116Z,21.90
2018-04-09T13:43:27.743Z,21.90
2018-04-09T13:45:56.113Z,21.90
2018-04-09T13:48:23.726Z,21.90
2018-04-09T13:50:51.213Z,21.90
2018-04-09T13:53:19.502Z,21.90
2018-04-09T13:55:47.796Z,21.90
2018-04-09T13:58:15.305Z,21.90
2018-04-09T14:00:42.861Z,21.90
2018-04-09T14:03:10.395Z,21.90
2018-04-09T14:05:37.935Z,21.90
2018-04-09T14:08:06.223Z,21.90
2018-04-09T14:10:33.922Z,21.90
2018-04-09T14:13:01.427Z,21.90
2018-04-09T14:15:28.941Z,21.80
2018-04-09T14:17:56.453Z,21.80
2018-04-09T14:20:24.715Z,21.60
2018-04-09T14:22:52.209Z,21.60
2018-04-09T14:25:20.470Z,21.50
2018-04-09T14:27:48.501Z,21.50
2018-04-09T14:30:16.115Z,21.50
2018-04-09T14:32:43.871Z,21.40
2018-04-09T14:35:11.367Z,21.50
2018-04-09T14:37:39.635Z,21.50
2018-04-09T14:40:07.159Z,21.50
2018-04-09T14:42:34.665Z,21.50
2018-04-09T14:45:02.941Z,21.40
2018-04-09T14:47:31.263Z,21.40
2018-04-09T14:49:58.788Z,21.40
2018-04-09T14:52:26.324Z,21.30
2018-04-09T14:54:53.831Z,21.30
2018-04-09T14:57:22.129Z,21.30
2018-04-09T14:59:49.639Z,21.30
2018-04-09T15:02:17.152Z,21.30
2018-04-09T15:04:44.726Z,21.40
2018-04-09T15:07:12.208Z,21.40
2018-04-09T15:09:39.722Z,21.40
2018-04-09T15:12:07.964Z,21.40
2018-04-09T15:14:36.413Z,21.40
2018-04-09T15:17:04.904Z,21.40
2018-04-09T15:19:32.766Z,21.40
2018-04-09T15:22:00.261Z,21.40
2018-04-09T15:24:27.875Z,21.50
2018-04-09T15:26:56.145Z,21.60
2018-04-09T15:29:23.676Z,21.60
2018-04-09T15:31:51.175Z,21.60
2018-04-09T15:34:19.494Z,21.60
2018-04-09T15:36:47.045Z,21.60
2018-04-09T15:39:16.047Z,21.50
2018-04-09T15:41:43.614Z,21.50
2018-04-09T15:44:11.205Z,21.40
2018-04-09T15:46:38.794Z,21.40
2018-04-09T15:49:06.409Z,21.30
2018-04-09T15:51:33.910Z,21.30
2018-04-09T15:54:01.410Z,21.20
2018-04-09T15:56:29.706Z,21.00
2018-04-09T15:58:57.252Z,21.00
2018-04-09T16:01:25.874Z,20.90
2018-04-09T16:03:54.741Z,20.80
2018-04-09T16:06:23.121Z,20.70
2018-04-09T16:08:51.415Z,20.70
2018-04-09T16:11:26.232Z,20.60
2018-04-09T16:13:53.966Z,20.60
2018-04-09T16:16:23.358Z,20.60
2018-04-09T16:18:50.850Z,20.50
2018-04-09T16:21:18.528Z,20.50
2018-04-09T16:23:46.831Z,20.40
2018-04-09T16:26:15.100Z,20.40
2018-04-09T16:28:43.376Z,20.40
2018-04-09T16:31:10.935Z,20.30
2018-04-09T16:33:38.468Z,20.40
2018-04-09T16:36:06.498Z,20.30
2018-04-09T16:38:34.093Z,20.20
2018-04-09T16:41:01.601Z,20.20
2018-04-09T16:43:29.085Z,20.10
2018-04-09T16:45:57.383Z,20.10
2018-04-09T16:48:24.913Z,20.10
2018-04-09T16:50:52.492Z,20.10
2018-04-09T16:53:20.761Z,20.00
2018-04-09T16:55:49.066Z,20.00
2018-04-09T16:58:16.580Z,19.90
2018-04-09T17:00:44.111Z,19.90
2018-04-09T17:03:11.617Z,19.80
2018-04-09T17:05:40.656Z,19.70
2018-04-09T17:08:08.163Z,19.70
2018-04-09T17:10:35.725Z,19.70
2018-04-09T17:13:03.281Z,19.70
2018-04-09T17:15:30.782Z,19.70
2018-04-09T17:17:59.211Z,19.50
2018-04-09T17:20:26.726Z,19.50
2018-04-09T17:22:55.008Z,19.40
2018-04-09T17:25:22.759Z,19.40
2018-04-09T17:27:50.274Z,19.30
2018-04-09T17:30:17.792Z,19.30
2018-04-09T17:32:45.400Z,19.20
2018-04-09T17:35:17.119Z,19.30
2018-04-09T17:37:45.861Z,19.20
2018-04-09T17:40:13.406Z,19.20
2018-04-09T17:42:42.481Z,19.00
2018-04-09T17:45:10.045Z,19.00
2018-04-09T17:47:37.913Z,19.00
2018-04-09T17:50:05.412Z,18.90
2018-04-09T17:52:32.914Z,18.80
2018-04-09T17:55:00.920Z,18.70
2018-04-09T17:57:29.412Z,18.60
2018-04-09T17:59:57.763Z,18.60
2018-04-09T18:02:25.277Z,18.60
2018-04-09T18:04:52.847Z,18.60
2018-04-09T18:07:20.373Z,18.50
2018-04-09T18:09:47.916Z,18.40
2018-04-09T18:12:15.541Z,18.40
2018-04-09T18:14:43.058Z,18.30
2018-04-09T18:17:10.574Z,18.20
2018-04-09T18:19:38.076Z,18.20
2018-04-09T18:22:05.613Z,18.10
2018-04-09T18:24:33.125Z,18.10
2018-04-09T18:27:00.653Z,18.00
2018-04-09T18:29:28.188Z,18.00
2018-04-09T18:31:55.687Z,17.90
2018-04-09T18:34:23.398Z,18.00
2018-04-09T18:36:51.745Z,17.90
2018-04-09T18:39:19.268Z,17.80
2018-04-09T18:41:46.773Z,17.80
2018-04-09T18:44:14.348Z,17.80
2018-04-09T18:46:43.432Z,17.70
2018-04-09T18:49:10.964Z,17.70
2018-04-09T18:51:38.512Z,17.70
2018-04-09T18:54:06.043Z,17.70
2018-04-09T18:56:33.544Z,17.70
2018-04-09T18:59:01.275Z,17.60
2018-04-09T19:01:29.592Z,17.50
2018-04-09T19:03:57.126Z,17.50
2018-04-09T19:06:25.409Z,17.40
2018-04-09T19:08:53.782Z,17.40
2018-04-09T19:11:21.284Z,17.40
2018-04-09T19:13:48.776Z,17.40
2018-04-09T19:16:16.313Z,17.40
2018-04-09T19:18:44.756Z,17.20
2018-04-09T19:21:12.254Z,17.20
2018-04-09T19:23:39.758Z,17.20
2018-04-09T19:26:08.662Z,17.10
2018-04-09T19:28:36.192Z,17.10
2018-04-09T19:31:04.568Z,17.10
2018-04-09T19:33:33.010Z,17.00
2018-04-09T19:36:06.456Z,17.00
2018-04-09T19:41:34.644Z,17.00
2018-04-09T19:44:02.141Z,17.10
2018-04-09T19:46:29.676Z,17.10
2018-04-09T19:48:57.204Z,17.20
2018-04-09T19:51:24.994Z,17.20
2018-04-09T19:53:52.687Z,17.10
2018-04-09T19:56:20.201Z,17.10
2018-04-09T19:58:48.472Z,16.90
2018-04-09T20:01:16.006Z,16.90
2018-04-09T20:03:44.624Z,16.80
2018-04-09T20:06:12.938Z,16.80
2018-04-09T20:08:40.788Z,16.80
2018-04-09T20:11:09.759Z,16.80
2018-04-09T20:13:38.494Z,16.70
2018-04-09T20:16:06.003Z,16.70
2018-04-09T20:18:33.509Z,16.80
2018-04-09T20:21:03.115Z,16.80
2018-04-09T20:23:30.717Z,16.80
2018-04-09T20:25:59.375Z,16.80
2018-04-09T20:28:27.652Z,16.70
2018-04-09T20:30:56.087Z,16.70
2018-04-09T20:33:23.989Z,16.70
2018-04-09T20:35:51.943Z,16.70
2018-04-09T20:38:19.582Z,16.70
2018-04-09T20:40:47.084Z,16.70
2018-04-09T20:43:14.586Z,16.70
2018-04-09T20:45:42.833Z,16.60
2018-04-09T20:48:10.339Z,16.60
2018-04-09T20:50:38.555Z,16.60
2018-04-09T20:53:06.099Z,16.60
2018-04-09T20:55:33.647Z,16.60
2018-04-09T20:58:01.166Z,16.60
2018-04-09T21:00:29.312Z,16.60
2018-04-09T21:02:56.856Z,16.50
2018-04-09T21:05:24.382Z,16.40
2018-04-09T21:07:53.294Z,16.30
2018-04-09T21:10:20.778Z,16.20
2018-04-09T21:12:48.544Z,16.20
2018-04-09T21:15:16.076Z,16.10
2018-04-09T21:17:44.082Z,16.10
2018-04-09T21:20:11.734Z,16.00
2018-04-09T21:22:39.307Z,16.00
2018-04-09T21:25:06.808Z,15.90
2018-04-09T21:27:34.334Z,15.80
2018-04-09T21:30:01.840Z,15.80
2018-04-09T21:32:29.726Z,15.70
2018-04-09T21:34:57.208Z,15.70
2018-04-09T21:37:25.496Z,15.60
2018-04-09T21:39:53.747Z,15.60
2018-04-09T21:42:22.032Z,15.50
2018-04-09T21:44:50.698Z,15.50
2018-04-09T21:47:18.573Z,15.50
2018-04-09T21:49:46.069Z,15.50
2018-04-09T21:52:14.348Z,15.40
2018-04-09T21:54:42.636Z,15.40
2018-04-09T21:57:11.075Z,15.30
2018-04-09T21:59:38.663Z,15.30
2018-04-09T22:02:06.175Z,15.20
2018-04-09T22:04:33.671Z,15.20
2018-04-09T22:07:01.178Z,15.20
2018-04-09T22:09:30.435Z,15.10
2018-04-09T22:11:57.946Z,15.10
2018-04-09T22:14:26.198Z,15.10
2018-04-09T22:16:53.706Z,15.00
2018-04-09T22:19:21.618Z,15.00
2018-04-09T22:21:49.207Z,15.00
2018-04-09T22:24:16.716Z,15.00
2018-04-09T22:26:44.219Z,14.90
2018-04-09T22:29:11.739Z,14.90
2018-04-09T22:31:39.429Z,14.90
2018-04-09T22:34:06.949Z,14.90
2018-04-09T22:36:35.218Z,14.80
2018-04-09T22:39:03.501Z,14.80
2018-04-09T22:41:31.754Z,14.80
2018-04-09T22:44:00.795Z,14.70
2018-04-09T22:46:28.294Z,14.70
2018-04-09T22:48:55.837Z,14.70
2018-04-09T22:51:23.332Z,14.70
2018-04-09T22:53:50.947Z,14.70
2018-04-09T22:56:19.207Z,14.60
2018-04-09T22:58:47.491Z,14.60
2018-04-09T23:01:15.003Z,14.50
2018-04-09T23:03:42.515Z,14.50
2018-04-09T23:06:11.007Z,14.50
2018-04-09T23:08:39.335Z,14.40
2018-04-09T23:11:06.833Z,14.40
2018-04-09T23:13:34.442Z,14.40
2018-04-09T23:16:01.957Z,14.40
2018-04-09T23:18:30.660Z,14.40
2018-04-09T23:21:00.019Z,14.30
2018-04-09T23:23:28.798Z,14.30
2018-04-09T23:25:56.791Z,14.30
2018-04-09T23:28:24.293Z,14.30
2018-04-09T23:30:51.797Z,14.30
2018-04-09T23:33:19.322Z,14.30
2018-04-09T23:35:47.260Z,14.30
2018-04-09T23:38:14.782Z,14.30
2018-04-09T23:40:48.633Z,14.20
2018-04-09T23:43:16.144Z,14.20
2018-04-09T23:45:44.400Z,14.20
2018-04-09T23:48:14.516Z,14.20
2018-04-09T23:50:42.092Z,14.20
2018-04-09T23:53:09.708Z,14.20
2018-04-09T23:55:37.280Z,14.20
2018-04-09T23:58:04.828Z,14.20
